sensor_id;sensor_type;location;lat;lon;timestamp;pressure;altitude;pressure_sealevel;temperature;humidity
34921;BME280;21128;50.016;20.002;2023-05-08T00:00:34;99855.97;;;5.28;100.00
34921;BME280;21128;50.016;20.002;2023-05-08T00:03:16;99863.87;;;5.27;100.00
34921;BME280;21128;50.016;20.002;2023-05-08T00:05:43;99863.87;;;5.27;100.00
34921;BME280;21128;50.016;20.002;2023-05-08T00:08:11;99862.19;;;5.26;100.00
34921;BME280;21128;50.016;20.002;2023-05-08T00:10:38;99853.53;;;5.25;100.00
34921;BME280;21128;50.016;20.002;2023-05-08T00:13:05;99862.28;;;5.24;100.00
34921;BME280;21128;50.016;20.002;2023-05-08T00:15:32;99862.52;;;5.20;100.00
34921;BME280;21128;50.016;20.002;2023-05-08T00:17:59;99866.14;;;5.17;100.00
34921;BME280;21128;50.016;20.002;2023-05-08T00:20:26;99855.89;;;5.14;100.00
34921;BME280;21128;50.016;20.002;2023-05-08T00:22:53;99862.88;;;5.14;100.00
34921;BME280;21128;50.016;20.002;2023-05-08T00:25:20;99864.78;;;5.10;100.00
34921;BME280;21128;50.016;20.002;2023-05-08T00:27:47;99858.73;;;5.09;100.00
34921;BME280;21128;50.016;20.002;2023-05-08T00:30:15;99864.03;;;5.08;100.00
34921;BME280;21128;50.016;20.002;2023-05-08T00:32:42;99869.42;;;5.05;100.00
34921;BME280;21128;50.016;20.002;2023-05-08T00:35:09;99873.00;;;5.02;100.00
34921;BME280;21128;50.016;20.002;2023-05-08T00:37:36;99870.31;;;5.04;100.00
34921;BME280;21128;50.016;20.002;2023-05-08T00:40:08;99873.80;;;5.04;100.00
34921;BME280;21128;50.016;20.002;2023-05-08T00:42:35;99872.86;;;5.05;100.00
34921;BME280;21128;50.016;20.002;2023-05-08T00:45:03;99872.03;;;5.05;100.00
34921;BME280;21128;50.016;20.002;2023-05-08T00:47:31;99872.17;;;5.02;100.00
34921;BME280;21128;50.016;20.002;2023-05-08T00:49:59;99876.45;;;5.03;100.00
34921;BME280;21128;50.016;20.002;2023-05-08T00:52:28;99875.52;;;5.04;100.00
34921;BME280;21128;50.016;20.002;2023-05-08T00:54:56;99884.36;;;5.01;100.00
34921;BME280;21128;50.016;20.002;2023-05-08T00:57:23;99879.23;;;5.00;100.00
34921;BME280;21128;50.016;20.002;2023-05-08T00:59:51;99879.14;;;5.01;100.00
34921;BME280;21128;50.016;20.002;2023-05-08T01:02:19;99881.66;;;5.03;100.00
34921;BME280;21128;50.016;20.002;2023-05-08T01:04:47;99879.05;;;5.03;100.00
34921;BME280;21128;50.016;20.002;2023-05-08T01:07:14;99883.34;;;5.04;100.00
34921;BME280;21128;50.016;20.002;2023-05-08T01:09:41;99895.30;;;5.08;100.00
34921;BME280;21128;50.016;20.002;2023-05-08T01:15:06;99898.91;;;5.05;100.00
34921;BME280;21128;50.016;20.002;2023-05-08T01:17:44;99897.15;;;5.06;100.00
34921;BME280;21128;50.016;20.002;2023-05-08T01:20:29;99896.31;;;5.05;100.00
34921;BME280;21128;50.016;20.002;2023-05-08T01:31:16;99904.18;;;5.04;100.00
34921;BME280;21128;50.016;20.002;2023-05-08T01:33:50;99894.69;;;5.03;100.00
34921;BME280;21128;50.016;20.002;2023-05-08T01:36:28;99895.52;;;5.03;100.00
34921;BME280;21128;50.016;20.002;2023-05-08T01:39:21;99901.52;;;5.05;100.00
34921;BME280;21128;50.016;20.002;2023-05-08T01:41:59;99898.12;;;5.03;100.00
34921;BME280;21128;50.016;20.002;2023-05-08T01:44:34;99902.50;;;5.03;100.00
34921;BME280;21128;50.016;20.002;2023-05-08T01:47:06;99901.66;;;5.02;100.00
34921;BME280;21128;50.016;20.002;2023-05-08T01:49:49;99907.70;;;5.03;100.00
34921;BME280;21128;50.016;20.002;2023-05-08T01:52:27;99906.88;;;5.02;100.00
34921;BME280;21128;50.016;20.002;2023-05-08T01:54:58;99897.30;;;5.03;100.00
34921;BME280;21128;50.016;20.002;2023-05-08T01:57:29;99902.50;;;5.03;100.00
34921;BME280;21128;50.016;20.002;2023-05-08T01:59:59;99893.94;;;5.01;100.00
34921;BME280;21128;50.016;20.002;2023-05-08T02:02:29;99898.39;;;4.99;100.00
34921;BME280;21128;50.016;20.002;2023-05-08T02:04:57;99899.41;;;4.96;100.00
34921;BME280;21128;50.016;20.002;2023-05-08T02:07:25;99892.43;;;4.97;100.00
34921;BME280;21128;50.016;20.002;2023-05-08T02:09:53;99899.41;;;4.96;100.00
34921;BME280;21128;50.016;20.002;2023-05-08T02:12:21;99900.24;;;4.97;100.00
34921;BME280;21128;50.016;20.002;2023-05-08T02:14:52;99891.64;;;4.95;100.00
34921;BME280;21128;50.016;20.002;2023-05-08T02:17:20;99902.91;;;4.95;100.00
34921;BME280;21128;50.016;20.002;2023-05-08T02:19:48;99900.24;;;4.97;100.00
34921;BME280;21128;50.016;20.002;2023-05-08T02:22:17;99898.53;;;4.96;100.00
34921;BME280;21128;50.016;20.002;2023-05-08T02:24:45;99902.01;;;4.96;100.00
34921;BME280;21128;50.016;20.002;2023-05-08T02:27:13;99908.05;;;4.97;100.00
34921;BME280;21128;50.016;20.002;2023-05-08T02:29:41;99908.81;;;4.99;100.00
34921;BME280;21128;50.016;20.002;2023-05-08T02:32:08;99907.88;;;5.00;100.00
34921;BME280;21128;50.016;20.002;2023-05-08T02:34:37;99910.58;;;4.98;100.00
34921;BME280;21128;50.016;20.002;2023-05-08T02:37:04;99905.45;;;4.97;100.00
34921;BME280;21128;50.016;20.002;2023-05-08T02:39:33;99911.73;;;4.93;100.00
34921;BME280;21128;50.016;20.002;2023-05-08T02:42:01;99913.66;;;4.89;100.00
34921;BME280;21128;50.016;20.002;2023-05-08T02:44:29;99907.67;;;4.87;100.00
34921;BME280;21128;50.016;20.002;2023-05-08T02:47:03;99907.62;;;4.89;100.00
34921;BME280;21128;50.016;20.002;2023-05-08T02:49:40;99912.88;;;4.87;100.00
34921;BME280;21128;50.016;20.002;2023-05-08T02:52:15;99914.06;;;4.82;100.00
34921;BME280;21128;50.016;20.002;2023-05-08T02:54:56;99918.56;;;4.78;100.00
34921;BME280;21128;50.016;20.002;2023-05-08T02:57:44;99922.18;;;4.75;100.00
34921;BME280;21128;50.016;20.002;2023-05-08T03:00:16;99926.63;;;4.73;100.00
34921;BME280;21128;50.016;20.002;2023-05-08T03:03:06;99920.72;;;4.70;100.00
34921;BME280;21128;50.016;20.002;2023-05-08T03:05:36;99923.41;;;4.68;100.00
34921;BME280;21128;50.016;20.002;2023-05-08T03:08:07;99930.47;;;4.66;100.00
34921;BME280;21128;50.016;20.002;2023-05-08T03:10:38;99921.90;;;4.64;100.00
34921;BME280;21128;50.016;20.002;2023-05-08T03:13:09;99917.53;;;4.65;100.00
34921;BME280;21128;50.016;20.002;2023-05-08T03:15:44;99923.72;;;4.62;100.00
34921;BME280;21128;50.016;20.002;2023-05-08T03:18:18;99915.15;;;4.60;100.00
34921;BME280;21128;50.016;20.002;2023-05-08T03:20:50;99919.52;;;4.60;100.00
34921;BME280;21128;50.016;20.002;2023-05-08T03:23:19;99924.80;;;4.58;100.00
34921;BME280;21128;50.016;20.002;2023-05-08T03:25:47;99925.73;;;4.57;100.00
34921;BME280;21128;50.016;20.002;2023-05-08T03:28:14;99920.52;;;4.57;100.00
34921;BME280;21128;50.016;20.002;2023-05-08T03:30:43;99924.80;;;4.58;100.00
34921;BME280;21128;50.016;20.002;2023-05-08T03:33:12;99927.49;;;4.57;100.00
34921;BME280;21128;50.016;20.002;2023-05-08T03:35:40;99922.37;;;4.55;100.00
34921;BME280;21128;50.016;20.002;2023-05-08T03:38:07;99920.73;;;4.52;100.00
34921;BME280;21128;50.016;20.002;2023-05-08T03:40:34;99927.88;;;4.49;100.00
34921;BME280;21128;50.016;20.002;2023-05-08T03:43:08;99928.80;;;4.48;100.00
34921;BME280;21128;50.016;20.002;2023-05-08T03:45:36;99928.04;;;4.46;100.00
34921;BME280;21128;50.016;20.002;2023-05-08T03:48:05;99934.08;;;4.46;100.00
34921;BME280;21128;50.016;20.002;2023-05-08T03:50:34;99928.04;;;4.46;100.00
34921;BME280;21128;50.016;20.002;2023-05-08T03:53:01;99927.17;;;4.45;100.00
34921;BME280;21128;50.016;20.002;2023-05-08T03:55:30;99933.25;;;4.46;100.00
34921;BME280;21128;50.016;20.002;2023-05-08T03:58:20;99937.66;;;4.44;100.00
34921;BME280;21128;50.016;20.002;2023-05-08T04:06:39;99949.28;;;4.37;100.00
34921;BME280;21128;50.016;20.002;2023-05-08T04:09:12;99940.88;;;4.32;100.00
34921;BME280;21128;50.016;20.002;2023-05-08T04:11:46;99953.14;;;4.30;100.00
34921;BME280;21128;50.016;20.002;2023-05-08T04:14:19;99948.91;;;4.27;100.00
34921;BME280;21128;50.016;20.002;2023-05-08T04:16:49;99950.91;;;4.22;100.00
34921;BME280;21128;50.016;20.002;2023-05-08T04:19:21;99957.80;;;4.23;100.00
34921;BME280;21128;50.016;20.002;2023-05-08T04:21:53;99953.59;;;4.20;100.00
34921;BME280;21128;50.016;20.002;2023-05-08T04:24:24;99962.28;;;4.19;100.00
34921;BME280;21128;50.016;20.002;2023-05-08T04:26:53;99959.84;;;4.16;100.00
34921;BME280;21128;50.016;20.002;2023-05-08T04:29:21;99973.77;;;4.15;100.00
34921;BME280;21128;50.016;20.002;2023-05-08T04:31:49;99977.29;;;4.14;100.00
34921;BME280;21128;50.016;20.002;2023-05-08T04:34:17;99972.84;;;4.16;100.00
34921;BME280;21128;50.016;20.002;2023-05-08T04:36:44;99976.13;;;4.20;100.00
34921;BME280;21128;50.016;20.002;2023-05-08T04:39:11;99976.13;;;4.20;100.00
34921;BME280;21128;50.016;20.002;2023-05-08T04:41:38;99980.45;;;4.21;100.00
34921;BME280;21128;50.016;20.002;2023-05-08T04:44:05;99992.53;;;4.22;100.00
34921;BME280;21128;50.016;20.002;2023-05-08T04:46:32;99985.57;;;4.22;100.00
34921;BME280;21128;50.016;20.002;2023-05-08T04:48:59;99989.77;;;4.25;100.00
34921;BME280;21128;50.016;20.002;2023-05-08T04:51:26;99993.13;;;4.27;100.00
34921;BME280;21128;50.016;20.002;2023-05-08T04:53:53;99994.77;;;4.30;100.00
34921;BME280;21128;50.016;20.002;2023-05-08T04:56:20;99991.92;;;4.34;100.00
34921;BME280;21128;50.016;20.002;2023-05-08T04:58:47;99999.44;;;4.40;100.00
34921;BME280;21128;50.016;20.002;2023-05-08T05:01:14;100003.56;;;4.44;100.00
34921;BME280;21128;50.016;20.002;2023-05-08T05:03:41;100007.01;;;4.45;100.00
34921;BME280;21128;50.016;20.002;2023-05-08T05:06:08;100004.41;;;4.45;100.00
34921;BME280;21128;50.016;20.002;2023-05-08T05:08:35;100004.36;;;4.46;100.00
34921;BME280;21128;50.016;20.002;2023-05-08T05:11:02;100019.89;;;4.48;100.00
34921;BME280;21128;50.016;20.002;2023-05-08T05:13:29;100023.94;;;4.53;100.00
34921;BME280;21128;50.016;20.002;2023-05-08T05:15:58;100018.73;;;4.53;100.00
34921;BME280;21128;50.016;20.002;2023-05-08T05:18:25;100020.96;;;4.61;100.00
34921;BME280;21128;50.016;20.002;2023-05-08T05:20:52;100027.55;;;4.68;100.00
34921;BME280;21128;50.016;20.002;2023-05-08T05:23:19;100029.10;;;4.72;100.00
34921;BME280;21128;50.016;20.002;2023-05-08T05:25:45;100031.70;;;4.72;100.00
34921;BME280;21128;50.016;20.002;2023-05-08T05:28:12;100029.10;;;4.72;100.00
34921;BME280;21128;50.016;20.002;2023-05-08T05:30:39;100030.78;;;4.73;100.00
34921;BME280;21128;50.016;20.002;2023-05-08T05:33:06;100021.42;;;4.69;100.00
34921;BME280;21128;50.016;20.002;2023-05-08T05:35:33;100033.69;;;4.67;100.00
34921;BME280;21128;50.016;20.002;2023-05-08T05:38:00;100035.28;;;4.70;100.00
34921;BME280;21128;50.016;20.002;2023-05-08T05:40:27;100032.55;;;4.73;100.00
34921;BME280;21128;50.016;20.002;2023-05-08T05:42:54;100033.22;;;4.76;100.00
34921;BME280;21128;50.016;20.002;2023-05-08T05:45:21;100038.30;;;4.79;100.00
34921;BME280;21128;50.016;20.002;2023-05-08T05:47:48;100040.66;;;4.84;100.00
34921;BME280;21128;50.016;20.002;2023-05-08T05:50:16;100035.28;;;4.87;100.00
34921;BME280;21128;50.016;20.002;2023-05-08T05:52:44;100032.55;;;4.90;100.00
34921;BME280;21128;50.016;20.002;2023-05-08T05:55:12;100042.88;;;4.92;100.00
34921;BME280;21128;50.016;20.002;2023-05-08T05:57:39;100040.11;;;4.95;100.00
34921;BME280;21128;50.016;20.002;2023-05-08T06:00:07;100048.93;;;4.92;100.00
34921;BME280;21128;50.016;20.002;2023-05-08T06:02:35;100051.38;;;4.95;100.00
34921;BME280;21128;50.016;20.002;2023-05-08T06:05:03;100056.36;;;5.00;100.00
34921;BME280;21128;50.016;20.002;2023-05-08T06:07:30;100050.06;;;5.04;100.00
34921;BME280;21128;50.016;20.002;2023-05-08T06:09:57;100052.36;;;5.10;100.00
34921;BME280;21128;50.016;20.002;2023-05-08T06:12:24;100050.97;;;5.20;100.00
34921;BME280;21128;50.016;20.002;2023-05-08T06:14:52;100058.39;;;5.28;100.00
34921;BME280;21128;50.016;20.002;2023-05-08T06:17:19;100052.03;;;5.33;100.00
34921;BME280;21128;50.016;20.002;2023-05-08T06:19:47;100062.99;;;5.40;100.00
34921;BME280;21128;50.016;20.002;2023-05-08T06:22:16;100055.76;;;5.45;100.00
34921;BME280;21128;50.016;20.002;2023-05-08T06:24:44;100064.36;;;5.47;100.00
34921;BME280;21128;50.016;20.002;2023-05-08T06:27:11;100072.02;;;5.50;100.00
34921;BME280;21128;50.016;20.002;2023-05-08T06:29:38;100070.08;;;5.54;100.00
34921;BME280;21128;50.016;20.002;2023-05-08T06:32:05;100065.56;;;5.57;100.00
34921;BME280;21128;50.016;20.002;2023-05-08T06:34:32;100074.05;;;5.61;100.00
34921;BME280;21128;50.016;20.002;2023-05-08T06:36:59;100076.17;;;5.70;100.00
34921;BME280;21128;50.016;20.002;2023-05-08T06:39:26;100082.17;;;5.72;100.00
34921;BME280;21128;50.016;20.002;2023-05-08T06:41:53;100077.71;;;5.74;100.00
34921;BME280;21128;50.016;20.002;2023-05-08T06:44:20;100076.38;;;5.83;100.00
34921;BME280;21128;50.016;20.002;2023-05-08T06:46:47;100076.00;;;5.90;100.00
34921;BME280;21128;50.016;20.002;2023-05-08T06:49:14;100086.88;;;5.99;100.00
34921;BME280;21128;50.016;20.002;2023-05-08T06:51:41;100074.31;;;6.21;100.00
34921;BME280;21128;50.016;20.002;2023-05-08T06:54:08;100083.26;;;6.33;100.00
34921;BME280;21128;50.016;20.002;2023-05-08T06:56:35;100081.72;;;6.44;100.00
34921;BME280;21128;50.016;20.002;2023-05-08T06:59:02;100091.97;;;6.63;100.00
34921;BME280;21128;50.016;20.002;2023-05-08T07:01:29;100077.52;;;6.88;100.00
34921;BME280;21128;50.016;20.002;2023-05-08T07:03:56;100084.37;;;7.04;100.00
34921;BME280;21128;50.016;20.002;2023-05-08T07:06:23;100078.90;;;7.09;100.00
34921;BME280;21128;50.016;20.002;2023-05-08T07:08:50;100082.55;;;7.07;100.00
34921;BME280;21128;50.016;20.002;2023-05-08T07:11:17;100086.05;;;7.05;100.00
34921;BME280;21128;50.016;20.002;2023-05-08T07:13:44;100081.86;;;7.03;100.00
34921;BME280;21128;50.016;20.002;2023-05-08T07:16:14;100089.45;;;7.08;100.00
34921;BME280;21128;50.016;20.002;2023-05-08T07:18:42;100088.36;;;7.26;100.00
34921;BME280;21128;50.016;20.002;2023-05-08T07:21:10;100089.42;;;7.52;100.00
34921;BME280;21128;50.016;20.002;2023-05-08T07:23:36;100072.88;;;7.80;100.00
34921;BME280;21128;50.016;20.002;2023-05-08T07:26:03;100075.95;;;8.01;100.00
34921;BME280;21128;50.016;20.002;2023-05-08T07:28:30;100075.17;;;8.13;99.70
34921;BME280;21128;50.016;20.002;2023-05-08T07:30:57;100087.73;;;8.08;100.00
34921;BME280;21128;50.016;20.002;2023-05-08T07:33:24;100096.79;;;8.16;100.00
34921;BME280;21128;50.016;20.002;2023-05-08T07:35:51;100101.98;;;8.31;99.49
34921;BME280;21128;50.016;20.002;2023-05-08T07:38:18;100095.42;;;8.52;99.74
34921;BME280;21128;50.016;20.002;2023-05-08T07:40:45;100092.94;;;8.63;99.63
34921;BME280;21128;50.016;20.002;2023-05-08T07:43:12;100096.91;;;8.83;98.85
34921;BME280;21128;50.016;20.002;2023-05-08T07:45:40;100093.02;;;8.89;98.17
34921;BME280;21128;50.016;20.002;2023-05-08T07:48:07;100101.87;;;8.73;96.61
34921;BME280;21128;50.016;20.002;2023-05-08T07:50:34;100102.55;;;8.50;94.27
34921;BME280;21128;50.016;20.002;2023-05-08T07:53:02;100102.40;;;8.10;95.17
34921;BME280;21128;50.016;20.002;2023-05-08T07:55:29;100109.62;;;7.93;95.83
34921;BME280;21128;50.016;20.002;2023-05-08T07:57:57;100108.30;;;7.71;96.08
34921;BME280;21128;50.016;20.002;2023-05-08T08:00:24;100105.88;;;7.68;96.30
34921;BME280;21128;50.016;20.002;2023-05-08T08:02:55;100099.97;;;7.65;97.36
34921;BME280;21128;50.016;20.002;2023-05-08T08:05:23;100108.75;;;7.63;97.10
34921;BME280;21128;50.016;20.002;2023-05-08T08:07:50;100104.20;;;7.67;97.85
34921;BME280;21128;50.016;20.002;2023-05-08T08:10:17;100104.67;;;7.74;97.87
34921;BME280;21128;50.016;20.002;2023-05-08T08:12:44;100098.04;;;7.82;98.40
34921;BME280;21128;50.016;20.002;2023-05-08T08:15:11;100094.66;;;7.95;98.42
34921;BME280;21128;50.016;20.002;2023-05-08T08:17:38;100096.06;;;8.00;96.94
34921;BME280;21128;50.016;20.002;2023-05-08T08:20:05;100108.01;;;7.90;97.04
34921;BME280;21128;50.016;20.002;2023-05-08T08:22:32;100099.25;;;7.91;97.04
34921;BME280;21128;50.016;20.002;2023-05-08T08:24:59;100110.63;;;7.90;96.66
34921;BME280;21128;50.016;20.002;2023-05-08T08:27:26;100103.91;;;7.86;97.18
34921;BME280;21128;50.016;20.002;2023-05-08T08:29:53;100103.81;;;7.87;96.81
34921;BME280;21128;50.016;20.002;2023-05-08T08:32:20;100107.10;;;7.91;95.93
34921;BME280;21128;50.016;20.002;2023-05-08T08:34:47;100106.43;;;7.87;95.93
34921;BME280;21128;50.016;20.002;2023-05-08T08:37:13;100100.36;;;7.87;94.73
34921;BME280;21128;50.016;20.002;2023-05-08T08:39:41;100109.78;;;7.89;96.29
34921;BME280;21128;50.016;20.002;2023-05-08T08:42:07;100097.73;;;8.01;96.63
34921;BME280;21128;50.016;20.002;2023-05-08T08:44:34;100102.40;;;8.10;95.74
34921;BME280;21128;50.016;20.002;2023-05-08T08:47:02;100101.92;;;8.18;95.94
34921;BME280;21128;50.016;20.002;2023-05-08T08:49:34;100103.12;;;8.27;96.39
34921;BME280;21128;50.016;20.002;2023-05-08T08:52:05;100108.37;;;8.41;96.14
34921;BME280;21128;50.016;20.002;2023-05-08T08:54:33;100106.59;;;8.41;94.40
34921;BME280;21128;50.016;20.002;2023-05-08T08:57:04;100104.80;;;8.28;93.18
34921;BME280;21128;50.016;20.002;2023-05-08T08:59:39;100105.91;;;8.24;92.50
34921;BME280;21128;50.016;20.002;2023-05-08T09:02:10;100102.19;;;8.28;93.60
34921;BME280;21128;50.016;20.002;2023-05-08T09:04:38;100106.20;;;8.33;92.31
34921;BME280;21128;50.016;20.002;2023-05-08T09:07:05;100112.46;;;8.45;92.92
34921;BME280;21128;50.016;20.002;2023-05-08T09:09:35;100102.69;;;8.61;94.59
34921;BME280;21128;50.016;20.002;2023-05-08T09:12:06;100100.65;;;8.79;93.06
34921;BME280;21128;50.016;20.002;2023-05-08T09:14:33;100108.90;;;8.73;92.65
34921;BME280;21128;50.016;20.002;2023-05-08T09:17:01;100103.77;;;8.71;92.60
34921;BME280;21128;50.016;20.002;2023-05-08T09:19:28;100109.39;;;8.65;92.58
34921;BME280;21128;50.016;20.002;2023-05-08T09:21:58;100115.19;;;8.70;92.50
34921;BME280;21128;50.016;20.002;2023-05-08T09:24:59;100113.30;;;8.72;92.39
34921;BME280;21128;50.016;20.002;2023-05-08T09:27:27;100120.78;;;8.79;91.83
34921;BME280;21128;50.016;20.002;2023-05-08T09:30:06;100123.40;;;8.79;92.05
34921;BME280;21128;50.016;20.002;2023-05-08T09:32:36;100114.30;;;8.84;92.90
34921;BME280;21128;50.016;20.002;2023-05-08T09:35:04;100112.20;;;8.89;92.90
34921;BME280;21128;50.016;20.002;2023-05-08T09:37:32;100111.81;;;8.95;92.08
34921;BME280;21128;50.016;20.002;2023-05-08T09:40:20;100113.98;;;8.89;90.78
34921;BME280;21128;50.016;20.002;2023-05-08T09:42:48;100117.11;;;8.81;92.46
34921;BME280;21128;50.016;20.002;2023-05-08T09:45:26;100118.37;;;8.76;90.91
34921;BME280;21128;50.016;20.002;2023-05-08T09:47:54;100119.25;;;8.62;90.31
34921;BME280;21128;50.016;20.002;2023-05-08T09:50:21;100117.67;;;8.59;90.98
34921;BME280;21128;50.016;20.002;2023-05-08T09:52:49;100112.95;;;8.64;90.38
34921;BME280;21128;50.016;20.002;2023-05-08T09:55:17;100119.52;;;8.57;92.07
34921;BME280;21128;50.016;20.002;2023-05-08T09:57:55;100119.25;;;8.62;91.85
34921;BME280;21128;50.016;20.002;2023-05-08T10:00:25;100127.73;;;8.65;91.83
34921;BME280;21128;50.016;20.002;2023-05-08T10:03:02;100123.27;;;8.67;91.55
34921;BME280;21128;50.016;20.002;2023-05-08T10:05:31;100127.91;;;8.77;91.83
34921;BME280;21128;50.016;20.002;2023-05-08T10:08:21;100118.89;;;8.81;91.98
34921;BME280;21128;50.016;20.002;2023-05-08T10:10:48;100112.76;;;8.94;92.43
34921;BME280;21128;50.016;20.002;2023-05-08T10:13:15;100115.95;;;9.12;90.80
34921;BME280;21128;50.016;20.002;2023-05-08T10:15:43;100104.22;;;9.30;92.14
34921;BME280;21128;50.016;20.002;2023-05-08T10:18:11;100110.95;;;9.47;90.98
34921;BME280;21128;50.016;20.002;2023-05-08T10:20:41;100108.98;;;9.51;90.99
34921;BME280;21128;50.016;20.002;2023-05-08T10:23:13;100110.55;;;9.53;91.21
34921;BME280;21128;50.016;20.002;2023-05-08T10:25:44;100107.27;;;9.50;89.51
34921;BME280;21128;50.016;20.002;2023-05-08T10:31:20;100113.72;;;9.06;89.98
34921;BME280;21128;50.016;20.002;2023-05-08T10:33:54;100109.19;;;8.95;89.80
34921;BME280;21128;50.016;20.002;2023-05-08T10:36:22;100110.42;;;8.90;90.07
34921;BME280;21128;50.016;20.002;2023-05-08T10:38:50;100105.73;;;8.95;90.60
34921;BME280;21128;50.016;20.002;2023-05-08T10:41:18;100109.54;;;9.16;91.54
34921;BME280;21128;50.016;20.002;2023-05-08T10:43:45;100095.54;;;9.43;90.24
34921;BME280;21128;50.016;20.002;2023-05-08T10:49:55;100108.75;;;9.79;89.73
34921;BME280;21128;50.016;20.002;2023-05-08T10:52:40;100096.35;;;9.81;88.80
34921;BME280;21128;50.016;20.002;2023-05-08T10:55:27;100095.34;;;9.58;89.15
34921;BME280;21128;50.016;20.002;2023-05-08T11:03:22;100097.83;;;9.73;89.22
34921;BME280;21128;50.016;20.002;2023-05-08T11:05:51;100095.25;;;10.35;89.56
34921;BME280;21128;50.016;20.002;2023-05-08T11:08:20;100087.91;;;10.75;88.52
34921;BME280;21128;50.016;20.002;2023-05-08T11:14:11;100088.66;;;10.53;86.42
34921;BME280;21128;50.016;20.002;2023-05-08T11:16:17;100088.48;;;10.43;86.57
34921;BME280;21128;50.016;20.002;2023-05-08T11:19:16;100089.64;;;10.39;86.96
34921;BME280;21128;50.016;20.002;2023-05-08T11:25:10;100085.39;;;10.50;86.17
34921;BME280;21128;50.016;20.002;2023-05-08T11:28:07;100082.39;;;10.43;86.16
34921;BME280;21128;50.016;20.002;2023-05-08T11:30:36;100084.64;;;10.24;85.11
34921;BME280;21128;50.016;20.002;2023-05-08T11:38:14;100087.47;;;10.21;86.17
34921;BME280;21128;50.016;20.002;2023-05-08T11:46:00;100081.59;;;10.30;84.92
34921;BME280;21128;50.016;20.002;2023-05-08T11:48:27;100086.73;;;10.31;85.89
34921;BME280;21128;50.016;20.002;2023-05-08T11:50:54;100091.61;;;10.49;86.16
34921;BME280;21128;50.016;20.002;2023-05-08T11:53:22;100081.89;;;10.62;85.69
34921;BME280;21128;50.016;20.002;2023-05-08T11:55:51;100081.94;;;10.73;85.98
34921;BME280;21128;50.016;20.002;2023-05-08T11:58:18;100083.32;;;10.90;85.89
34921;BME280;21128;50.016;20.002;2023-05-08T12:00:46;100074.14;;;10.95;85.65
34921;BME280;21128;50.016;20.002;2023-05-08T12:03:15;100081.32;;;10.93;85.80
34921;BME280;21128;50.016;20.002;2023-05-08T12:05:43;100079.41;;;10.95;85.65
34921;BME280;21128;50.016;20.002;2023-05-08T12:08:11;100074.98;;;10.96;85.12
34921;BME280;21128;50.016;20.002;2023-05-08T12:13:22;100077.91;;;10.80;83.74
34921;BME280;21128;50.016;20.002;2023-05-08T12:15:58;100081.09;;;10.73;77.04
34921;BME280;21128;50.016;20.002;2023-05-08T12:18:27;100071.98;;;10.65;75.04
34921;BME280;21128;50.016;20.002;2023-05-08T12:20:56;100069.79;;;10.59;72.92
34921;BME280;21128;50.016;20.002;2023-05-08T12:23:25;100070.38;;;10.52;72.70
34921;BME280;21128;50.016;20.002;2023-05-08T12:25:53;100078.27;;;10.52;72.94
34921;BME280;21128;50.016;20.002;2023-05-08T12:28:20;100073.84;;;10.52;72.57
34921;BME280;21128;50.016;20.002;2023-05-08T12:30:47;100065.68;;;10.68;73.07
34921;BME280;21128;50.016;20.002;2023-05-08T12:33:15;100067.06;;;10.85;73.16
34921;BME280;21128;50.016;20.002;2023-05-08T12:35:43;100060.16;;;10.95;72.67
34921;BME280;21128;50.016;20.002;2023-05-08T12:38:11;100060.75;;;10.98;71.99
34921;BME280;21128;50.016;20.002;2023-05-08T12:40:43;100061.00;;;10.95;70.32
34921;BME280;21128;50.016;20.002;2023-05-08T12:43:11;100058.37;;;10.95;69.71
34921;BME280;21128;50.016;20.002;2023-05-08T12:45:40;100060.87;;;10.97;68.83
34921;BME280;21128;50.016;20.002;2023-05-08T12:48:10;100054.78;;;10.96;67.79
34921;BME280;21128;50.016;20.002;2023-05-08T12:50:39;100056.70;;;10.94;67.69
34921;BME280;21128;50.016;20.002;2023-05-08T12:53:08;100063.00;;;10.92;68.08
34921;BME280;21128;50.016;20.002;2023-05-08T12:55:36;100069.09;;;10.92;67.88
34921;BME280;21128;50.016;20.002;2023-05-08T12:58:08;100058.37;;;10.95;67.31
34921;BME280;21128;50.016;20.002;2023-05-08T13:00:40;100056.31;;;10.88;66.58
34921;BME280;21128;50.016;20.002;2023-05-08T13:03:09;100067.39;;;10.80;66.44
34921;BME280;21128;50.016;20.002;2023-05-08T13:05:42;100053.41;;;10.80;66.88
34921;BME280;21128;50.016;20.002;2023-05-08T13:08:09;100054.78;;;10.96;66.64
34921;BME280;21128;50.016;20.002;2023-05-08T13:10:53;100054.78;;;10.96;66.51
34921;BME280;21128;50.016;20.002;2023-05-08T13:13:28;100051.91;;;10.99;66.81
34921;BME280;21128;50.016;20.002;2023-05-08T13:15:56;100052.66;;;11.02;65.15
34921;BME280;21128;50.016;20.002;2023-05-08T13:18:25;100052.86;;;10.98;65.90
34921;BME280;21128;50.016;20.002;2023-05-08T13:20:53;100062.28;;;10.90;64.91
34921;BME280;21128;50.016;20.002;2023-05-08T13:23:22;100053.67;;;10.88;66.42
34921;BME280;21128;50.016;20.002;2023-05-08T13:25:50;100059.41;;;10.93;66.68
34921;BME280;21128;50.016;20.002;2023-05-08T13:28:17;100058.37;;;10.95;66.09
34921;BME280;21128;50.016;20.002;2023-05-08T13:30:44;100051.77;;;10.90;66.38
34921;BME280;21128;50.016;20.002;2023-05-08T13:33:11;100040.86;;;10.83;65.38
34921;BME280;21128;50.016;20.002;2023-05-08T13:35:38;100057.83;;;10.79;65.58
34921;BME280;21128;50.016;20.002;2023-05-08T13:38:04;100056.36;;;10.75;65.42
34921;BME280;21128;50.016;20.002;2023-05-08T13:40:32;100060.19;;;10.71;65.22
34921;BME280;21128;50.016;20.002;2023-05-08T13:42:59;100061.82;;;10.61;64.81
34921;BME280;21128;50.016;20.002;2023-05-08T13:45:26;100064.66;;;10.58;65.77